Cotes De Bretagne — FW3973 — position and weather

sailwx.info

Track history (hours):
 
Tides and Currents Weather Stations Pressure Air Temp Water Temp Dewpoint Dewpoint Depression Visibility Wind Speed Wind Dir Waves Ship Positions

Cotes De Bretagne

Last reported at 2016-Jul-28 23:33 UTC. Time now 2016-Jul-29 00:13 UTC.
Position N 47°16' W 002°57'.

Length 75 m; draft 4.2 m.

Type: Dredging. MMSI: 227003850.

Date/timePositionNaut miles runAvg speedWind from/ knotsBaromVisibWave heightAir tempDewpointWater temp
2016-Jul-28 23:33N 47°16' W 002°57'7 7.3
2016-Jul-28 22:33N 47°11' W 002°49'7 7.0
2016-Jul-28 21:33N 47°05' W 002°43'15 7.1
2016-Jul-28 19:23N 46°54' W 002°27'6 7.4
2016-Jul-28 18:33N 46°50' W 002°21'9 7.8
2016-Jul-28 17:22N 46°43' W 002°12'6 7.7
2016-Jul-28 16:33N 46°38' W 002°07'7 7.3
2016-Jul-28 15:34N 46°32' W 002°01'7 7.2
2016-Jul-28 14:34N 46°25' W 001°55'7 7.3
2016-Jul-28 13:33N 46°19' W 001°49'7 7.3
2016-Jul-28 12:34N 46°13' W 001°44'1 0.2
2016-Jul-28 07:33N 46°14' W 001°45'1010.1
2016-Jul-28 06:33N 46°22' W 001°53'1010.1
2016-Jul-28 05:33N 46°31' W 002°01'1010.1
2016-Jul-28 04:33N 46°39' W 002°09'9 9.5
2016-Jul-28 03:33N 46°47' W 002°17'10 9.6
2016-Jul-28 02:30N 46°54' W 002°27'10 9.9
2016-Jul-28 01:32N 47°04' W 002°25'8 8.4
2016-Jul-28 00:34N 47°10' W 002°18'1110.9
2016-Jul-27 23:34N 47°18' W 002°07'1110.6
2016-Jul-27 22:34N 47°16' W 001°52'9 8.8
2016-Jul-27 21:34N 47°12' W 001°41'2 1.8
2016-Jul-27 20:34N 47°12' W 001°38'0 0.0
2016-Jul-27 19:34N 47°12' W 001°38'8 7.9
2016-Jul-27 18:34N 47°13' W 001°49'10 9.7
2016-Jul-27 17:32N 47°18' W 002°02'8 8.4
2016-Jul-27 16:32N 47°15' W 002°14'9 8.7
2016-Jul-27 15:30N 47°07' W 002°21'1 1.3
2016-Jul-27 14:33N 47°07' W 002°20'0 0.0
2016-Jul-27 13:30N 47°07' W 002°20'0 0.0
2016-Jul-27 12:34N 47°07' W 002°20'0 0.0
2016-Jul-27 11:30N 47°07' W 002°20'1 1.1
2016-Jul-27 10:32N 47°06' W 002°21'13 6.2
2016-Jul-27 08:27N 46°53' W 002°26'14 7.1
2016-Jul-27 06:33N 46°43' W 002°13'7 7.5
2016-Jul-27 05:34N 46°37' W 002°07'7 7.0
2016-Jul-27 04:33N 46°31' W 002°01'7 7.2
2016-Jul-27 03:33N 46°25' W 001°55'8 7.5
2016-Jul-27 02:33N 46°19' W 001°49'7 7.5
2016-Jul-27 01:33N 46°13' W 001°43'7 7.4
2016-Jul-27 00:34N 46°07' W 001°37'2 1.9
2016-Jul-26 23:22N 46°05' W 001°36'0 0.2
2016-Jul-26 22:32N 46°05' W 001°36'1 1.4
2016-Jul-26 21:33N 46°06' W 001°37'1010.0
2016-Jul-26 20:33N 46°15' W 001°45'1010.4
2016-Jul-26 19:34N 46°23' W 001°53'1010.3
2016-Jul-26 18:34N 46°32' W 002°01'1010.2
2016-Jul-26 17:33N 46°40' W 002°10'10 9.8
2016-Jul-26 16:34N 46°48' W 002°19'19 9.7
2016-Jul-26 14:33N 47°02' W 002°38'10 9.4
2016-Jul-26 13:33N 47°09' W 002°47'10 9.9
2016-Jul-26 12:33N 47°17' W 002°57'9 9.5
2016-Jul-26 11:34N 47°24' W 003°06'9 9.0
2016-Jul-26 10:34N 47°31' W 003°14'10 9.8
2016-Jul-26 09:34N 47°39' W 003°21'5 5.2
2016-Jul-26 08:34N 47°44' W 003°21'0 0.0
2016-Jul-26 07:34N 47°44' W 003°21'0 0.0
2016-Jul-26 06:34N 47°44' W 003°21'0 0.0
2016-Jul-26 05:33N 47°44' W 003°21'0 0.0
2016-Jul-26 04:33N 47°44' W 003°21'0 0.0
2016-Jul-26 03:33N 47°44' W 003°21'0 0.0
2016-Jul-26 02:33N 47°44' W 003°21'0 0.0
2016-Jul-26 01:33N 47°44' W 003°21'0 0.0
2016-Jul-26 00:33N 47°44' W 003°21'0 0.0
2016-Jul-25 23:33N 47°44' W 003°21'0 0.0
2016-Jul-25 22:34N 47°44' W 003°21'0 0.0
2016-Jul-25 21:33N 47°44' W 003°21'1 1.4
2016-Jul-25 20:33N 47°45' W 003°19'0 0.0
2016-Jul-25 19:33N 47°45' W 003°19'0 0.0
2016-Jul-25 18:33N 47°45' W 003°19'1 1.4
2016-Jul-25 17:33N 47°44' W 003°21'0 0.0
2016-Jul-25 16:33N 47°44' W 003°21'0 0.0
2016-Jul-25 15:33N 47°44' W 003°21'0 0.0
2016-Jul-25 14:33N 47°44' W 003°21'0 0.0
2016-Jul-25 13:33N 47°44' W 003°21'0 0.0
2016-Jul-25 12:33N 47°44' W 003°21'0 0.0
2016-Jul-25 11:33N 47°44' W 003°21'5 4.9
2016-Jul-25 10:33N 47°40' W 003°23'9 8.6
2016-Jul-25 09:33N 47°32' W 003°17'8 8.4
2016-Jul-25 08:33N 47°26' W 003°09'8 8.2
2016-Jul-25 07:33N 47°20' W 003°01'9 8.8
2016-Jul-25 06:33N 47°12' W 002°54'9 8.7
2016-Jul-25 05:30N 47°04' W 002°47'17 8.6
2016-Jul-25 03:28N 46°49' W 002°35'8 8.7
2016-Jul-25 02:33N 46°42' W 002°29'9 8.3
2016-Jul-25 01:30N 46°37' W 002°19'8 8.3
2016-Jul-25 00:33N 46°33' W 002°09'9 8.6
2016-Jul-24 23:33N 46°29' W 001°58'9 8.6
2016-Jul-24 22:33N 46°24' W 001°48'3 2.7
2016-Jul-24 21:33N 46°22' W 001°45'0 0.0
2016-Jul-24 20:33N 46°22' W 001°45'0 0.1
2016-Jul-24 19:33N 46°22' W 001°45'0 0.0
2016-Jul-24 18:33N 46°22' W 001°45'9 8.9
2016-Jul-24 17:33N 46°28' W 001°54'1110.6
2016-Jul-24 16:33N 46°37' W 002°04'1110.1
2016-Jul-24 15:28N 46°45' W 002°15'910.1
2016-Jul-24 14:33N 46°52' W 002°24'10 9.5
2016-Jul-24 13:27N 46°59' W 002°34'9 9.8
2016-Jul-24 12:33N 47°06' W 002°43'1010.1
2016-Jul-24 11:33N 47°13' W 002°52'1010.3
2016-Jul-24 10:33N 47°21' W 003°03'10 9.8
2016-Jul-24 09:34N 47°25' W 003°16'1110.7
2016-Jul-24 08:33N 47°29' W 003°31'1110.6
2016-Jul-24 07:33N 47°33' W 003°45'1110.8
2016-Jul-24 06:31N 47°38' W 004°00'2110.7
2016-Jul-24 04:31N 47°48' W 004°28'1010.4
2016-Jul-24 03:33N 47°56' W 004°38'8 8.6
2016-Jul-24 02:34N 48°02' W 004°46'7 7.4
2016-Jul-24 01:34N 48°09' W 004°45'1010.0
2016-Jul-24 00:33N 48°19' W 004°48'1010.4
2016-Jul-23 23:34N 48°29' W 004°50'1110.9
2016-Jul-23 22:34N 48°39' W 004°42'1211.9
2016-Jul-23 21:33N 48°43' W 004°25'63 6.7
2016-Jul-23 12:07N 48°49' W 002°49'0 0.1
2016-Jul-23 11:11N 48°49' W 002°49'5 6.0
2016-Jul-23 10:22N 48°45' W 002°46'911.0
2016-Jul-23 09:33N 48°36' W 002°42'5 2.3
2016-Jul-23 07:23N 48°32' W 002°44'4 4.5
2016-Jul-23 06:33N 48°35' W 002°41'70 2.5
2016-Jul-22 02:33N 48°43' W 004°26'1111.0
2016-Jul-22 01:33N 48°39' W 004°42'1010.0
2016-Jul-22 00:33N 48°31' W 004°50'1110.9
2016-Jul-21 23:33N 48°20' W 004°48'10 9.8
2016-Jul-21 22:33N 48°10' W 004°45'9 9.1
2016-Jul-21 21:33N 48°01' W 004°45'10 9.8
2016-Jul-21 20:31N 47°53' W 004°35'11 9.8
2016-Jul-21 19:21N 47°45' W 004°23'8 9.9
2016-Jul-21 18:33N 47°44' W 004°11'9 8.6
2016-Jul-21 17:33N 47°53' W 004°07'2 0.5
2016-Jul-21 13:31N 47°51' W 004°06'0 0.0
2016-Jul-21 12:19N 47°51' W 004°06'0 0.0
2016-Jul-21 10:08N 47°51' W 004°06'0 0.0
2016-Jul-21 08:24N 47°51' W 004°06'0 0.0
2016-Jul-21 06:27N 47°51' W 004°06'1 1.2
2016-Jul-21 05:33N 47°50' W 004°05'14 4.8
2016-Jul-21 02:33N 47°47' W 004°26'17 8.5
2016-Jul-21 00:33N 47°60' W 004°43'5 4.6
2016-Jul-20 23:33N 48°04' W 004°45'9 9.1
2016-Jul-20 22:33N 48°13' W 004°45'10 9.6
2016-Jul-20 21:33N 48°23' W 004°49'10 9.8
2016-Jul-20 20:33N 48°33' W 004°50'1010.0
2016-Jul-20 19:33N 48°40' W 004°39'10 9.3
2016-Jul-20 18:32N 48°43' W 004°26'60 6.5
2016-Jul-20 09:19N 48°50' W 002°55'10 1.6
2016-Jul-20 03:15N 48°43' W 002°45'6 7.8
2016-Jul-20 02:33N 48°48' W 002°49'1 1.3
2016-Jul-20 01:28N 48°49' W 002°49'  
Track history (hours):
 
Tides and Currents Weather Stations Pressure Air Temp Water Temp Dewpoint Dewpoint Depression Visibility Wind Speed Wind Dir Waves Ship Positions

Cotes De Bretagne

Last reported at 2016-Jul-28 23:33 UTC. Time now 2016-Jul-29 00:13 UTC.
Position N 47°16' W 002°57'.

Length 75 m; draft 4.2 m.

Type: Dredging. MMSI: 227003850.

Date/timePositionNaut miles runAvg speedWind from/ knotsBaromVisibWave heightAir tempDewpointWater temp
2016-Jul-28 23:33N 47°16' W 002°57'7 7.3
2016-Jul-28 22:33N 47°11' W 002°49'7 7.0
2016-Jul-28 21:33N 47°05' W 002°43'15 7.1
2016-Jul-28 19:23N 46°54' W 002°27'6 7.4
2016-Jul-28 18:33N 46°50' W 002°21'9 7.8
2016-Jul-28 17:22N 46°43' W 002°12'6 7.7
2016-Jul-28 16:33N 46°38' W 002°07'7 7.3
2016-Jul-28 15:34N 46°32' W 002°01'7 7.2
2016-Jul-28 14:34N 46°25' W 001°55'7 7.3
2016-Jul-28 13:33N 46°19' W 001°49'7 7.3
2016-Jul-28 12:34N 46°13' W 001°44'1 0.2
2016-Jul-28 07:33N 46°14' W 001°45'1010.1
2016-Jul-28 06:33N 46°22' W 001°53'1010.1
2016-Jul-28 05:33N 46°31' W 002°01'1010.1
2016-Jul-28 04:33N 46°39' W 002°09'9 9.5
2016-Jul-28 03:33N 46°47' W 002°17'10 9.6
2016-Jul-28 02:30N 46°54' W 002°27'10 9.9
2016-Jul-28 01:32N 47°04' W 002°25'8 8.4
2016-Jul-28 00:34N 47°10' W 002°18'1110.9
2016-Jul-27 23:34N 47°18' W 002°07'1110.6
2016-Jul-27 22:34N 47°16' W 001°52'9 8.8
2016-Jul-27 21:34N 47°12' W 001°41'2 1.8
2016-Jul-27 20:34N 47°12' W 001°38'0 0.0
2016-Jul-27 19:34N 47°12' W 001°38'8 7.9
2016-Jul-27 18:34N 47°13' W 001°49'10 9.7
2016-Jul-27 17:32N 47°18' W 002°02'8 8.4
2016-Jul-27 16:32N 47°15' W 002°14'9 8.7
2016-Jul-27 15:30N 47°07' W 002°21'1 1.3
2016-Jul-27 14:33N 47°07' W 002°20'0 0.0
2016-Jul-27 13:30N 47°07' W 002°20'0 0.0
2016-Jul-27 12:34N 47°07' W 002°20'0 0.0
2016-Jul-27 11:30N 47°07' W 002°20'1 1.1
2016-Jul-27 10:32N 47°06' W 002°21'13 6.2
2016-Jul-27 08:27N 46°53' W 002°26'14 7.1
2016-Jul-27 06:33N 46°43' W 002°13'7 7.5
2016-Jul-27 05:34N 46°37' W 002°07'7 7.0
2016-Jul-27 04:33N 46°31' W 002°01'7 7.2
2016-Jul-27 03:33N 46°25' W 001°55'8 7.5
2016-Jul-27 02:33N 46°19' W 001°49'7 7.5
2016-Jul-27 01:33N 46°13' W 001°43'7 7.4
2016-Jul-27 00:34N 46°07' W 001°37'2 1.9
2016-Jul-26 23:22N 46°05' W 001°36'0 0.2
2016-Jul-26 22:32N 46°05' W 001°36'1 1.4
2016-Jul-26 21:33N 46°06' W 001°37'1010.0
2016-Jul-26 20:33N 46°15' W 001°45'1010.4
2016-Jul-26 19:34N 46°23' W 001°53'1010.3
2016-Jul-26 18:34N 46°32' W 002°01'1010.2
2016-Jul-26 17:33N 46°40' W 002°10'10 9.8
2016-Jul-26 16:34N 46°48' W 002°19'19 9.7
2016-Jul-26 14:33N 47°02' W 002°38'10 9.4
2016-Jul-26 13:33N 47°09' W 002°47'10 9.9
2016-Jul-26 12:33N 47°17' W 002°57'9 9.5
2016-Jul-26 11:34N 47°24' W 003°06'9 9.0
2016-Jul-26 10:34N 47°31' W 003°14'10 9.8
2016-Jul-26 09:34N 47°39' W 003°21'5 5.2
2016-Jul-26 08:34N 47°44' W 003°21'0 0.0
2016-Jul-26 07:34N 47°44' W 003°21'0 0.0
2016-Jul-26 06:34N 47°44' W 003°21'0 0.0
2016-Jul-26 05:33N 47°44' W 003°21'0 0.0
2016-Jul-26 04:33N 47°44' W 003°21'0 0.0
2016-Jul-26 03:33N 47°44' W 003°21'0 0.0
2016-Jul-26 02:33N 47°44' W 003°21'0 0.0
2016-Jul-26 01:33N 47°44' W 003°21'0 0.0
2016-Jul-26 00:33N 47°44' W 003°21'0 0.0
2016-Jul-25 23:33N 47°44' W 003°21'0 0.0
2016-Jul-25 22:34N 47°44' W 003°21'0 0.0
2016-Jul-25 21:33N 47°44' W 003°21'1 1.4
2016-Jul-25 20:33N 47°45' W 003°19'0 0.0
2016-Jul-25 19:33N 47°45' W 003°19'0 0.0
2016-Jul-25 18:33N 47°45' W 003°19'1 1.4
2016-Jul-25 17:33N 47°44' W 003°21'0 0.0
2016-Jul-25 16:33N 47°44' W 003°21'0 0.0
2016-Jul-25 15:33N 47°44' W 003°21'0 0.0
2016-Jul-25 14:33N 47°44' W 003°21'0 0.0
2016-Jul-25 13:33N 47°44' W 003°21'0 0.0
2016-Jul-25 12:33N 47°44' W 003°21'0 0.0
2016-Jul-25 11:33N 47°44' W 003°21'5 4.9
2016-Jul-25 10:33N 47°40' W 003°23'9 8.6
2016-Jul-25 09:33N 47°32' W 003°17'8 8.4
2016-Jul-25 08:33N 47°26' W 003°09'8 8.2
2016-Jul-25 07:33N 47°20' W 003°01'9 8.8
2016-Jul-25 06:33N 47°12' W 002°54'9 8.7
2016-Jul-25 05:30N 47°04' W 002°47'17 8.6
2016-Jul-25 03:28N 46°49' W 002°35'8 8.7
2016-Jul-25 02:33N 46°42' W 002°29'9 8.3
2016-Jul-25 01:30N 46°37' W 002°19'8 8.3
2016-Jul-25 00:33N 46°33' W 002°09'9 8.6
2016-Jul-24 23:33N 46°29' W 001°58'9 8.6
2016-Jul-24 22:33N 46°24' W 001°48'3 2.7
2016-Jul-24 21:33N 46°22' W 001°45'0 0.0
2016-Jul-24 20:33N 46°22' W 001°45'0 0.1
2016-Jul-24 19:33N 46°22' W 001°45'0 0.0
2016-Jul-24 18:33N 46°22' W 001°45'9 8.9
2016-Jul-24 17:33N 46°28' W 001°54'1110.6
2016-Jul-24 16:33N 46°37' W 002°04'1110.1
2016-Jul-24 15:28N 46°45' W 002°15'910.1
2016-Jul-24 14:33N 46°52' W 002°24'10 9.5
2016-Jul-24 13:27N 46°59' W 002°34'9 9.8
2016-Jul-24 12:33N 47°06' W 002°43'1010.1
2016-Jul-24 11:33N 47°13' W 002°52'1010.3
2016-Jul-24 10:33N 47°21' W 003°03'10 9.8
2016-Jul-24 09:34N 47°25' W 003°16'1110.7
2016-Jul-24 08:33N 47°29' W 003°31'1110.6
2016-Jul-24 07:33N 47°33' W 003°45'1110.8
2016-Jul-24 06:31N 47°38' W 004°00'2110.7
2016-Jul-24 04:31N 47°48' W 004°28'1010.4
2016-Jul-24 03:33N 47°56' W 004°38'8 8.6
2016-Jul-24 02:34N 48°02' W 004°46'7 7.4
2016-Jul-24 01:34N 48°09' W 004°45'1010.0
2016-Jul-24 00:33N 48°19' W 004°48'1010.4
2016-Jul-23 23:34N 48°29' W 004°50'1110.9
2016-Jul-23 22:34N 48°39' W 004°42'1211.9
2016-Jul-23 21:33N 48°43' W 004°25'63 6.7
2016-Jul-23 12:07N 48°49' W 002°49'0 0.1
2016-Jul-23 11:11N 48°49' W 002°49'5 6.0
2016-Jul-23 10:22N 48°45' W 002°46'911.0
2016-Jul-23 09:33N 48°36' W 002°42'5 2.3
2016-Jul-23 07:23N 48°32' W 002°44'4 4.5
2016-Jul-23 06:33N 48°35' W 002°41'70 2.5
2016-Jul-22 02:33N 48°43' W 004°26'1111.0
2016-Jul-22 01:33N 48°39' W 004°42'1010.0
2016-Jul-22 00:33N 48°31' W 004°50'1110.9
2016-Jul-21 23:33N 48°20' W 004°48'10 9.8
2016-Jul-21 22:33N 48°10' W 004°45'9 9.1
2016-Jul-21 21:33N 48°01' W 004°45'10 9.8
2016-Jul-21 20:31N 47°53' W 004°35'11 9.8
2016-Jul-21 19:21N 47°45' W 004°23'8 9.9
2016-Jul-21 18:33N 47°44' W 004°11'9 8.6
2016-Jul-21 17:33N 47°53' W 004°07'2 0.5
2016-Jul-21 13:31N 47°51' W 004°06'0 0.0
2016-Jul-21 12:19N 47°51' W 004°06'0 0.0
2016-Jul-21 10:08N 47°51' W 004°06'0 0.0
2016-Jul-21 08:24N 47°51' W 004°06'0 0.0
2016-Jul-21 06:27N 47°51' W 004°06'1 1.2
2016-Jul-21 05:33N 47°50' W 004°05'14 4.8
2016-Jul-21 02:33N 47°47' W 004°26'17 8.5
2016-Jul-21 00:33N 47°60' W 004°43'5 4.6
2016-Jul-20 23:33N 48°04' W 004°45'9 9.1
2016-Jul-20 22:33N 48°13' W 004°45'10 9.6
2016-Jul-20 21:33N 48°23' W 004°49'10 9.8
2016-Jul-20 20:33N 48°33' W 004°50'1010.0
2016-Jul-20 19:33N 48°40' W 004°39'10 9.3
2016-Jul-20 18:32N 48°43' W 004°26'60 6.5
2016-Jul-20 09:19N 48°50' W 002°55'10 1.6
2016-Jul-20 03:15N 48°43' W 002°45'6 7.8
2016-Jul-20 02:33N 48°48' W 002°49'1 1.3
2016-Jul-20 01:28N 48°49' W 002°49'  

Dump ship's entire track history